sensor_id;sensor_type;location;lat;lon;timestamp;pressure;altitude;pressure_sealevel;temperature;humidity
76732;BME280;65656;51.130;13.658;2023-07-16T00:01:09;98654.19;;;21.14;80.28
76732;BME280;65656;51.130;13.658;2023-07-16T00:05:11;98664.56;;;21.05;81.33
76732;BME280;65656;51.130;13.658;2023-07-16T00:09:12;98683.31;;;20.96;81.84
76732;BME280;65656;51.130;13.658;2023-07-16T00:13:14;98721.31;;;20.92;82.97
76732;BME280;65656;51.130;13.658;2023-07-16T00:17:17;98820.06;;;21.03;82.19
76732;BME280;65656;51.130;13.658;2023-07-16T00:21:18;98877.50;;;21.34;80.08
76732;BME280;65656;51.130;13.658;2023-07-16T00:25:20;98865.50;;;21.42;80.12
76732;BME280;65656;51.130;13.658;2023-07-16T00:29:21;98876.13;;;21.49;80.05
76732;BME280;65656;51.130;13.658;2023-07-16T00:33:25;98882.00;;;21.56;80.22
76732;BME280;65656;51.130;13.658;2023-07-16T00:37:26;98893.28;;;21.59;80.09
76732;BME280;65656;51.130;13.658;2023-07-16T00:41:28;98909.53;;;21.57;80.52
76732;BME280;65656;51.130;13.658;2023-07-16T00:45:29;98910.00;;;21.59;80.89
76732;BME280;65656;51.130;13.658;2023-07-16T00:49:32;98926.84;;;21.63;80.96
76732;BME280;65656;51.130;13.658;2023-07-16T00:53:34;98926.84;;;21.63;81.24
76732;BME280;65656;51.130;13.658;2023-07-16T00:57:36;98901.06;;;21.75;80.39
76732;BME280;65656;51.130;13.658;2023-07-16T01:01:39;98923.94;;;21.89;79.66
76732;BME280;65656;51.130;13.658;2023-07-16T01:05:47;98916.22;;;21.94;79.00
76732;BME280;65656;51.130;13.658;2023-07-16T01:09:51;98920.28;;;21.97;78.66
76732;BME280;65656;51.130;13.658;2023-07-16T01:13:53;98930.75;;;22.00;77.53
76732;BME280;65656;51.130;13.658;2023-07-16T01:17:55;98912.69;;;22.06;75.94
76732;BME280;65656;51.130;13.658;2023-07-16T01:22:19;98889.38;;;22.02;75.88
76732;BME280;65656;51.130;13.658;2023-07-16T01:26:45;98883.69;;;21.98;75.87
76732;BME280;65656;51.130;13.658;2023-07-16T01:30:55;98880.25;;;21.93;76.66
76732;BME280;65656;51.130;13.658;2023-07-16T01:34:59;98846.16;;;21.37;81.44
76732;BME280;65656;51.130;13.658;2023-07-16T01:39:01;98866.66;;;20.77;86.67
76732;BME280;65656;51.130;13.658;2023-07-16T01:43:03;98852.78;;;20.34;90.95
76732;BME280;65656;51.130;13.658;2023-07-16T01:47:08;98816.47;;;20.13;91.64
76732;BME280;65656;51.130;13.658;2023-07-16T01:51:10;98818.56;;;19.81;96.80
76732;BME280;65656;51.130;13.658;2023-07-16T01:55:12;98835.66;;;19.48;100.00
76732;BME280;65656;51.130;13.658;2023-07-16T01:59:13;98884.13;;;19.25;100.00
76732;BME280;65656;51.130;13.658;2023-07-16T02:03:16;98902.34;;;19.09;100.00
76732;BME280;65656;51.130;13.658;2023-07-16T02:07:18;98895.50;;;19.15;100.00
76732;BME280;65656;51.130;13.658;2023-07-16T02:11:19;98898.28;;;19.15;100.00
76732;BME280;65656;51.130;13.658;2023-07-16T02:15:21;98870.06;;;18.90;100.00
76732;BME280;65656;51.130;13.658;2023-07-16T02:19:24;98838.44;;;18.69;100.00
76732;BME280;65656;51.130;13.658;2023-07-16T02:23:25;98816.94;;;18.52;100.00
76732;BME280;65656;51.130;13.658;2023-07-16T02:27:27;98867.94;;;18.43;100.00
76732;BME280;65656;51.130;13.658;2023-07-16T02:31:29;98949.09;;;18.34;100.00
76732;BME280;65656;51.130;13.658;2023-07-16T02:35:32;98957.66;;;18.24;100.00
76732;BME280;65656;51.130;13.658;2023-07-16T02:39:33;98959.94;;;18.22;100.00
76732;BME280;65656;51.130;13.658;2023-07-16T02:43:35;98937.03;;;18.30;100.00
76732;BME280;65656;51.130;13.658;2023-07-16T02:47:36;98939.91;;;18.25;100.00
76732;BME280;65656;51.130;13.658;2023-07-16T02:51:39;98971.66;;;18.19;100.00
76732;BME280;65656;51.130;13.658;2023-07-16T02:55:41;98975.22;;;18.20;100.00
76732;BME280;65656;51.130;13.658;2023-07-16T02:59:42;98997.00;;;18.26;100.00
76732;BME280;65656;51.130;13.658;2023-07-16T03:03:44;98999.59;;;18.23;100.00
76732;BME280;65656;51.130;13.658;2023-07-16T03:07:47;99006.69;;;18.15;100.00
76732;BME280;65656;51.130;13.658;2023-07-16T03:11:49;98998.47;;;18.10;100.00
76732;BME280;65656;51.130;13.658;2023-07-16T03:15:50;99020.66;;;18.10;100.00
76732;BME280;65656;51.130;13.658;2023-07-16T03:19:52;99040.56;;;18.12;100.00
76732;BME280;65656;51.130;13.658;2023-07-16T03:23:55;99047.13;;;18.16;100.00
76732;BME280;65656;51.130;13.658;2023-07-16T03:27:56;99028.47;;;18.08;100.00
76732;BME280;65656;51.130;13.658;2023-07-16T03:31:58;99042.63;;;18.06;100.00
76732;BME280;65656;51.130;13.658;2023-07-16T03:35:59;99045.50;;;18.15;100.00
76732;BME280;65656;51.130;13.658;2023-07-16T03:40:13;99057.59;;;18.19;100.00
76732;BME280;65656;51.130;13.658;2023-07-16T03:44:15;99047.75;;;18.13;100.00
76732;BME280;65656;51.130;13.658;2023-07-16T03:48:17;99040.56;;;18.12;100.00
76732;BME280;65656;51.130;13.658;2023-07-16T03:52:18;99011.59;;;18.04;100.00
76732;BME280;65656;51.130;13.658;2023-07-16T03:56:21;99020.00;;;18.13;100.00
76732;BME280;65656;51.130;13.658;2023-07-16T04:00:23;98992.50;;;18.17;100.00
76732;BME280;65656;51.130;13.658;2023-07-16T04:04:24;98962.81;;;18.17;100.00
76732;BME280;65656;51.130;13.658;2023-07-16T04:08:26;98942.78;;;18.20;100.00
76732;BME280;65656;51.130;13.658;2023-07-16T04:12:29;98944.88;;;18.15;100.00
76732;BME280;65656;51.130;13.658;2023-07-16T04:16:30;98946.28;;;18.12;100.00
76732;BME280;65656;51.130;13.658;2023-07-16T04:20:32;98900.09;;;18.07;100.00
76732;BME280;65656;51.130;13.658;2023-07-16T04:24:34;98922.88;;;18.18;100.00
76732;BME280;65656;51.130;13.658;2023-07-16T04:28:37;98912.81;;;18.22;100.00
76732;BME280;65656;51.130;13.658;2023-07-16T04:32:38;98920.78;;;18.37;100.00
76732;BME280;65656;51.130;13.658;2023-07-16T04:36:41;98925.25;;;18.47;100.00
76732;BME280;65656;51.130;13.658;2023-07-16T04:40:43;98921.72;;;18.55;100.00
76732;BME280;65656;51.130;13.658;2023-07-16T04:44:46;98937.94;;;18.62;100.00
76732;BME280;65656;51.130;13.658;2023-07-16T04:48:48;98942.25;;;18.68;100.00
76732;BME280;65656;51.130;13.658;2023-07-16T04:52:49;98939.34;;;18.73;100.00
76732;BME280;65656;51.130;13.658;2023-07-16T04:56:51;98938.06;;;18.79;100.00
76732;BME280;65656;51.130;13.658;2023-07-16T05:00:54;98935.69;;;18.86;100.00
76732;BME280;65656;51.130;13.658;2023-07-16T05:04:55;98907.56;;;18.79;100.00
76732;BME280;65656;51.130;13.658;2023-07-16T05:08:57;98888.25;;;18.74;100.00
76732;BME280;65656;51.130;13.658;2023-07-16T05:12:59;98898.34;;;18.70;100.00
76732;BME280;65656;51.130;13.658;2023-07-16T05:17:02;98908.97;;;18.68;100.00
76732;BME280;65656;51.130;13.658;2023-07-16T05:21:03;98935.81;;;18.81;100.00
76732;BME280;65656;51.130;13.658;2023-07-16T05:25:06;98961.66;;;18.90;100.00
76732;BME280;65656;51.130;13.658;2023-07-16T05:29:07;98995.59;;;18.87;100.00
76732;BME280;65656;51.130;13.658;2023-07-16T05:33:11;98964.56;;;18.85;100.00
76732;BME280;65656;51.130;13.658;2023-07-16T05:37:12;98989.25;;;18.87;100.00
76732;BME280;65656;51.130;13.658;2023-07-16T05:41:14;98981.22;;;18.85;100.00
76732;BME280;65656;51.130;13.658;2023-07-16T05:45:15;98992.34;;;18.85;100.00
76732;BME280;65656;51.130;13.658;2023-07-16T05:49:19;98998.66;;;19.00;100.00
76732;BME280;65656;51.130;13.658;2023-07-16T05:53:20;99007.84;;;19.09;100.00
76732;BME280;65656;51.130;13.658;2023-07-16T05:57:22;99015.03;;;19.10;100.00
76732;BME280;65656;51.130;13.658;2023-07-16T06:01:23;99063.41;;;19.09;100.00
76732;BME280;65656;51.130;13.658;2023-07-16T06:05:26;99066.34;;;19.35;100.00
76732;BME280;65656;51.130;13.658;2023-07-16T06:09:28;99076.00;;;19.37;100.00
76732;BME280;65656;51.130;13.658;2023-07-16T06:13:29;99076.06;;;19.68;100.00
76732;BME280;65656;51.130;13.658;2023-07-16T06:17:31;99066.47;;;19.83;100.00
76732;BME280;65656;51.130;13.658;2023-07-16T06:21:34;99081.13;;;19.97;100.00
76732;BME280;65656;51.130;13.658;2023-07-16T06:25:35;99077.81;;;19.87;100.00
76732;BME280;65656;51.130;13.658;2023-07-16T06:29:37;99089.75;;;19.87;100.00
76732;BME280;65656;51.130;13.658;2023-07-16T06:33:38;99082.97;;;20.11;100.00
76732;BME280;65656;51.130;13.658;2023-07-16T06:37:41;99074.81;;;20.63;100.00
76732;BME280;65656;51.130;13.658;2023-07-16T06:41:43;99071.22;;;21.05;100.00
76732;BME280;65656;51.130;13.658;2023-07-16T06:45:44;99074.19;;;21.35;100.00
76732;BME280;65656;51.130;13.658;2023-07-16T06:49:46;99056.13;;;21.58;100.00
76732;BME280;65656;51.130;13.658;2023-07-16T06:53:49;99063.31;;;21.59;100.00
76732;BME280;65656;51.130;13.658;2023-07-16T06:57:50;99072.38;;;21.56;100.00
76732;BME280;65656;51.130;13.658;2023-07-16T07:01:52;99066.78;;;21.39;100.00
76732;BME280;65656;51.130;13.658;2023-07-16T07:05:53;99061.22;;;21.39;100.00
76732;BME280;65656;51.130;13.658;2023-07-16T07:09:56;99064.00;;;21.48;100.00
76732;BME280;65656;51.130;13.658;2023-07-16T07:13:58;99074.19;;;21.44;99.65
76732;BME280;65656;51.130;13.658;2023-07-16T07:17:59;99078.09;;;21.60;98.47
76732;BME280;65656;51.130;13.658;2023-07-16T07:22:01;99085.09;;;21.75;97.43
76732;BME280;65656;51.130;13.658;2023-07-16T07:26:04;99087.03;;;21.83;92.12
76732;BME280;65656;51.130;13.658;2023-07-16T07:30:07;99098.19;;;21.83;89.86
76732;BME280;65656;51.130;13.658;2023-07-16T07:34:08;99111.97;;;21.88;85.97
76732;BME280;65656;51.130;13.658;2023-07-16T07:38:10;99122.75;;;21.98;84.67
76732;BME280;65656;51.130;13.658;2023-07-16T07:42:13;99127.19;;;22.08;80.25
76732;BME280;65656;51.130;13.658;2023-07-16T07:46:15;99137.84;;;22.14;79.32
76732;BME280;65656;51.130;13.658;2023-07-16T07:50:17;99143.34;;;22.32;78.83
76732;BME280;65656;51.130;13.658;2023-07-16T07:54:18;99154.75;;;22.09;80.73
76732;BME280;65656;51.130;13.658;2023-07-16T07:58:21;99158.41;;;21.84;79.47
76732;BME280;65656;51.130;13.658;2023-07-16T08:02:23;99161.78;;;22.15;76.89
76732;BME280;65656;51.130;13.658;2023-07-16T08:06:25;99167.38;;;22.15;77.41
76732;BME280;65656;51.130;13.658;2023-07-16T08:10:27;99170.31;;;22.28;77.68
76732;BME280;65656;51.130;13.658;2023-07-16T08:14:30;99161.91;;;22.36;73.94
76732;BME280;65656;51.130;13.658;2023-07-16T08:18:31;99156.00;;;22.67;74.55
76732;BME280;65656;51.130;13.658;2023-07-16T08:22:33;99165.75;;;22.91;73.50
76732;BME280;65656;51.130;13.658;2023-07-16T08:26:34;99159.94;;;22.66;71.05
76732;BME280;65656;51.130;13.658;2023-07-16T08:30:37;99162.03;;;22.40;71.39
76732;BME280;65656;51.130;13.658;2023-07-16T08:34:39;99168.84;;;22.98;71.48
76732;BME280;65656;51.130;13.658;2023-07-16T08:38:40;99192.91;;;23.32;65.04
76732;BME280;65656;51.130;13.658;2023-07-16T08:42:44;99173.09;;;23.46;64.85
76732;BME280;65656;51.130;13.658;2023-07-16T08:46:47;99173.03;;;23.75;62.01
76732;BME280;65656;51.130;13.658;2023-07-16T08:50:49;99167.69;;;23.82;59.30
76732;BME280;65656;51.130;13.658;2023-07-16T08:54:51;99176.97;;;23.74;63.33
76732;BME280;65656;51.130;13.658;2023-07-16T08:58:54;99172.50;;;23.61;64.06
76732;BME280;65656;51.130;13.658;2023-07-16T09:02:57;99188.78;;;23.59;64.75
76732;BME280;65656;51.130;13.658;2023-07-16T09:06:59;99196.50;;;23.62;63.10
76732;BME280;65656;51.130;13.658;2023-07-16T09:11:00;99192.72;;;23.58;62.40
76732;BME280;65656;51.130;13.658;2023-07-16T09:15:02;99205.91;;;23.78;62.96
76732;BME280;65656;51.130;13.658;2023-07-16T09:19:09;99185.09;;;24.00;62.33
76732;BME280;65656;51.130;13.658;2023-07-16T09:23:11;99189.00;;;24.20;60.06
76732;BME280;65656;51.130;13.658;2023-07-16T09:27:13;99197.06;;;24.22;58.09
76732;BME280;65656;51.130;13.658;2023-07-16T09:31:15;99204.00;;;23.70;58.43
76732;BME280;65656;51.130;13.658;2023-07-16T09:35:18;99205.78;;;24.08;58.02
76732;BME280;65656;51.130;13.658;2023-07-16T09:39:20;99213.00;;;23.76;57.27
76732;BME280;65656;51.130;13.658;2023-07-16T09:43:21;99211.47;;;23.78;58.35
76732;BME280;65656;51.130;13.658;2023-07-16T09:47:23;99216.00;;;23.71;58.62
76732;BME280;65656;51.130;13.658;2023-07-16T09:51:30;99211.03;;;24.55;56.60
76732;BME280;65656;51.130;13.658;2023-07-16T09:55:34;99214.69;;;24.22;57.18
76732;BME280;65656;51.130;13.658;2023-07-16T09:59:36;99215.25;;;24.61;55.64
76732;BME280;65656;51.130;13.658;2023-07-16T10:03:48;99211.94;;;24.34;58.91
76732;BME280;65656;51.130;13.658;2023-07-16T10:07:52;99231.56;;;24.47;56.06
76732;BME280;65656;51.130;13.658;2023-07-16T10:11:54;99227.38;;;24.19;52.48
76732;BME280;65656;51.130;13.658;2023-07-16T10:15:57;99222.72;;;24.44;53.98
76732;BME280;65656;51.130;13.658;2023-07-16T10:20:00;99216.00;;;25.07;49.20
76732;BME280;65656;51.130;13.658;2023-07-16T10:24:04;99207.81;;;25.14;47.26
76732;BME280;65656;51.130;13.658;2023-07-16T10:28:06;99219.22;;;25.33;47.88
76732;BME280;65656;51.130;13.658;2023-07-16T10:32:08;99222.50;;;25.35;47.32
76732;BME280;65656;51.130;13.658;2023-07-16T10:36:09;99217.13;;;25.30;47.04
76732;BME280;65656;51.130;13.658;2023-07-16T10:40:13;99226.88;;;25.73;45.24
76732;BME280;65656;51.130;13.658;2023-07-16T10:44:15;99234.09;;;25.74;42.85
76732;BME280;65656;51.130;13.658;2023-07-16T10:48:17;99229.22;;;25.59;44.10
76732;BME280;65656;51.130;13.658;2023-07-16T10:52:18;99238.13;;;25.48;42.69
76732;BME280;65656;51.130;13.658;2023-07-16T10:56:21;99232.25;;;25.78;45.06
76732;BME280;65656;51.130;13.658;2023-07-16T11:00:23;99228.63;;;25.77;43.19
76732;BME280;65656;51.130;13.658;2023-07-16T11:04:25;99223.88;;;25.53;44.44
76732;BME280;65656;51.130;13.658;2023-07-16T11:08:27;99218.91;;;25.75;45.09
76732;BME280;65656;51.130;13.658;2023-07-16T11:12:30;99223.28;;;26.00;44.52
76732;BME280;65656;51.130;13.658;2023-07-16T11:16:33;99217.16;;;25.98;45.94
76732;BME280;65656;51.130;13.658;2023-07-16T11:20:35;99211.53;;;25.70;44.40
76732;BME280;65656;51.130;13.658;2023-07-16T11:24:38;99226.69;;;25.41;45.57
76732;BME280;65656;51.130;13.658;2023-07-16T11:28:41;99222.13;;;25.49;44.96
76732;BME280;65656;51.130;13.658;2023-07-16T11:32:46;99213.56;;;25.58;46.51
76732;BME280;65656;51.130;13.658;2023-07-16T11:36:48;99219.97;;;25.98;44.18
76732;BME280;65656;51.130;13.658;2023-07-16T11:40:52;99218.66;;;25.68;47.05
76732;BME280;65656;51.130;13.658;2023-07-16T11:44:55;99219.38;;;25.77;44.72
76732;BME280;65656;51.130;13.658;2023-07-16T11:48:56;99212.66;;;25.53;46.21
76732;BME280;65656;51.130;13.658;2023-07-16T11:53:00;99214.34;;;25.06;47.11
76732;BME280;65656;51.130;13.658;2023-07-16T11:57:02;99209.97;;;25.45;46.49
76732;BME280;65656;51.130;13.658;2023-07-16T12:01:05;99198.75;;;26.29;43.54
76732;BME280;65656;51.130;13.658;2023-07-16T12:05:07;99197.75;;;26.49;44.14
76732;BME280;65656;51.130;13.658;2023-07-16T12:09:08;99189.75;;;26.51;45.46
76732;BME280;65656;51.130;13.658;2023-07-16T12:13:10;99195.69;;;26.34;47.96
76732;BME280;65656;51.130;13.658;2023-07-16T12:17:13;99195.13;;;26.13;44.04
76732;BME280;65656;51.130;13.658;2023-07-16T12:21:14;99190.63;;;27.18;43.81
76732;BME280;65656;51.130;13.658;2023-07-16T12:25:18;99193.13;;;28.17;42.09
76732;BME280;65656;51.130;13.658;2023-07-16T12:29:21;99184.84;;;27.85;41.32
76732;BME280;65656;51.130;13.658;2023-07-16T12:33:23;99185.13;;;27.99;40.94
76732;BME280;65656;51.130;13.658;2023-07-16T12:37:25;99179.72;;;28.52;40.30
76732;BME280;65656;51.130;13.658;2023-07-16T12:41:27;99181.53;;;27.80;40.95
76732;BME280;65656;51.130;13.658;2023-07-16T12:45:28;99187.66;;;28.47;41.19
76732;BME280;65656;51.130;13.658;2023-07-16T12:49:31;99199.88;;;28.12;38.88
76732;BME280;65656;51.130;13.658;2023-07-16T12:53:33;99196.19;;;29.23;39.67
76732;BME280;65656;51.130;13.658;2023-07-16T12:57:34;99192.06;;;30.40;36.27
76732;BME280;65656;51.130;13.658;2023-07-16T13:01:36;99188.50;;;30.50;35.49
76732;BME280;65656;51.130;13.658;2023-07-16T13:05:39;99190.13;;;30.92;36.10
76732;BME280;65656;51.130;13.658;2023-07-16T13:09:40;99195.00;;;32.62;32.53
76732;BME280;65656;51.130;13.658;2023-07-16T13:13:42;99176.03;;;31.61;32.15
76732;BME280;65656;51.130;13.658;2023-07-16T13:17:43;99178.28;;;30.35;33.77
76732;BME280;65656;51.130;13.658;2023-07-16T13:21:46;99199.66;;;29.39;33.71
76732;BME280;65656;51.130;13.658;2023-07-16T13:25:48;99190.09;;;29.77;33.75
76732;BME280;65656;51.130;13.658;2023-07-16T13:29:49;99188.31;;;31.87;30.79
76732;BME280;65656;51.130;13.658;2023-07-16T13:33:51;99182.91;;;28.97;34.61
76732;BME280;65656;51.130;13.658;2023-07-16T13:37:54;99193.75;;;30.93;32.30
76732;BME280;65656;51.130;13.658;2023-07-16T13:41:55;99179.19;;;33.11;29.30
76732;BME280;65656;51.130;13.658;2023-07-16T13:46:17;99186.06;;;33.24;28.85
76732;BME280;65656;51.130;13.658;2023-07-16T13:50:19;99191.97;;;31.98;30.61
76732;BME280;65656;51.130;13.658;2023-07-16T13:54:23;99191.75;;;32.75;30.08
76732;BME280;65656;51.130;13.658;2023-07-16T13:58:24;99201.06;;;30.53;32.45
76732;BME280;65656;51.130;13.658;2023-07-16T14:02:26;99197.78;;;33.62;28.13
76732;BME280;65656;51.130;13.658;2023-07-16T14:06:27;99197.66;;;30.03;32.60
76732;BME280;65656;51.130;13.658;2023-07-16T14:10:30;99193.81;;;30.15;32.89
76732;BME280;65656;51.130;13.658;2023-07-16T14:14:32;99186.66;;;31.17;30.13
76732;BME280;65656;51.130;13.658;2023-07-16T14:18:33;99192.66;;;31.74;31.42
76732;BME280;65656;51.130;13.658;2023-07-16T14:22:35;99186.03;;;33.42;27.25
76732;BME280;65656;51.130;13.658;2023-07-16T14:26:38;99186.78;;;33.64;26.67
76732;BME280;65656;51.130;13.658;2023-07-16T14:30:40;99184.28;;;35.09;25.10
76732;BME280;65656;51.130;13.658;2023-07-16T14:34:41;99188.41;;;35.50;25.05
76732;BME280;65656;51.130;13.658;2023-07-16T14:38:43;99199.84;;;32.62;27.60
76732;BME280;65656;51.130;13.658;2023-07-16T14:42:46;99192.44;;;32.22;26.20
76732;BME280;65656;51.130;13.658;2023-07-16T14:46:47;99186.63;;;34.07;25.44
76732;BME280;65656;51.130;13.658;2023-07-16T14:50:49;99184.88;;;33.04;25.88
76732;BME280;65656;51.130;13.658;2023-07-16T14:54:51;99166.38;;;33.98;25.20
76732;BME280;65656;51.130;13.658;2023-07-16T14:58:54;99180.59;;;31.15;27.85
76732;BME280;65656;51.130;13.658;2023-07-16T15:02:55;99179.09;;;32.19;26.54
76732;BME280;65656;51.130;13.658;2023-07-16T15:06:57;99169.03;;;32.67;26.86
76732;BME280;65656;51.130;13.658;2023-07-16T15:10:59;99162.75;;;33.90;25.94
76732;BME280;65656;51.130;13.658;2023-07-16T15:15:02;99176.28;;;32.22;27.17
76732;BME280;65656;51.130;13.658;2023-07-16T15:19:04;99178.69;;;32.24;27.36
76732;BME280;65656;51.130;13.658;2023-07-16T15:23:06;99173.84;;;32.24;27.37
76732;BME280;65656;51.130;13.658;2023-07-16T15:27:07;99172.09;;;31.77;27.94
76732;BME280;65656;51.130;13.658;2023-07-16T15:31:11;99176.94;;;34.01;26.46
76732;BME280;65656;51.130;13.658;2023-07-16T15:35:12;99161.59;;;31.88;27.93
76732;BME280;65656;51.130;13.658;2023-07-16T15:39:14;99156.78;;;33.56;26.42
76732;BME280;65656;51.130;13.658;2023-07-16T15:43:15;99167.44;;;32.88;26.79
76732;BME280;65656;51.130;13.658;2023-07-16T15:47:18;99170.72;;;31.56;28.22
76732;BME280;65656;51.130;13.658;2023-07-16T15:51:20;99164.47;;;33.59;27.32
76732;BME280;65656;51.130;13.658;2023-07-16T15:55:22;99160.88;;;33.34;26.99
76732;BME280;65656;51.130;13.658;2023-07-16T15:59:23;99164.16;;;33.21;26.71
76732;BME280;65656;51.130;13.658;2023-07-16T16:03:26;99164.19;;;32.75;27.43
76732;BME280;65656;51.130;13.658;2023-07-16T16:07:28;99165.69;;;32.01;28.01
76732;BME280;65656;51.130;13.658;2023-07-16T16:11:29;99172.16;;;32.02;27.74
76732;BME280;65656;51.130;13.658;2023-07-16T16:15:31;99167.31;;;32.02;28.11
76732;BME280;65656;51.130;13.658;2023-07-16T16:19:34;99157.25;;;32.30;28.43
76732;BME280;65656;51.130;13.658;2023-07-16T16:23:35;99161.66;;;32.09;27.74
76732;BME280;65656;51.130;13.658;2023-07-16T16:27:37;99160.41;;;31.96;29.01
76732;BME280;65656;51.130;13.658;2023-07-16T16:31:38;99168.03;;;31.78;28.21
76732;BME280;65656;51.130;13.658;2023-07-16T16:35:42;99176.34;;;30.87;29.29
76732;BME280;65656;51.130;13.658;2023-07-16T16:39:43;99169.38;;;30.33;30.22
76732;BME280;65656;51.130;13.658;2023-07-16T16:43:45;99176.75;;;31.51;29.04
76732;BME280;65656;51.130;13.658;2023-07-16T16:47:46;99167.28;;;29.93;30.46
76732;BME280;65656;51.130;13.658;2023-07-16T16:51:49;99170.56;;;29.35;32.06
76732;BME280;65656;51.130;13.658;2023-07-16T16:55:51;99173.13;;;28.91;33.24
76732;BME280;65656;51.130;13.658;2023-07-16T16:59:53;99180.78;;;28.67;33.11
76732;BME280;65656;51.130;13.658;2023-07-16T17:03:54;99175.81;;;27.76;33.45
76732;BME280;65656;51.130;13.658;2023-07-16T17:07:58;99184.50;;;27.67;33.87
76732;BME280;65656;51.130;13.658;2023-07-16T17:11:59;99187.19;;;27.80;34.13
76732;BME280;65656;51.130;13.658;2023-07-16T17:16:01;99193.69;;;27.84;34.52
76732;BME280;65656;51.130;13.658;2023-07-16T17:20:03;99194.25;;;27.93;34.55
76732;BME280;65656;51.130;13.658;2023-07-16T17:24:06;99195.84;;;27.36;34.44
76732;BME280;65656;51.130;13.658;2023-07-16T17:28:08;99193.25;;;27.27;34.95
76732;BME280;65656;51.130;13.658;2023-07-16T17:32:10;99196.59;;;27.33;34.87
76732;BME280;65656;51.130;13.658;2023-07-16T17:36:11;99193.19;;;27.62;33.87
76732;BME280;65656;51.130;13.658;2023-07-16T17:40:15;99195.16;;;27.77;34.15
76732;BME280;65656;51.130;13.658;2023-07-16T17:44:16;99204.78;;;27.76;33.87
76732;BME280;65656;51.130;13.658;2023-07-16T17:48:18;99208.22;;;27.15;34.77
76732;BME280;65656;51.130;13.658;2023-07-16T17:52:19;99203.47;;;26.25;36.95
76732;BME280;65656;51.130;13.658;2023-07-16T17:56:22;99198.56;;;25.66;38.04
76732;BME280;65656;51.130;13.658;2023-07-16T18:00:24;99202.31;;;25.70;37.77
76732;BME280;65656;51.130;13.658;2023-07-16T18:04:26;99205.19;;;25.45;38.26
76732;BME280;65656;51.130;13.658;2023-07-16T18:08:28;99212.22;;;25.27;38.76
76732;BME280;65656;51.130;13.658;2023-07-16T18:12:31;99204.88;;;25.22;38.87
76732;BME280;65656;51.130;13.658;2023-07-16T18:16:33;99209.91;;;25.17;38.86
76732;BME280;65656;51.130;13.658;2023-07-16T18:20:35;99206.84;;;24.97;39.43
76732;BME280;65656;51.130;13.658;2023-07-16T18:24:37;99209.28;;;24.74;39.01
76732;BME280;65656;51.130;13.658;2023-07-16T18:28:39;99219.22;;;24.60;39.52
76732;BME280;65656;51.130;13.658;2023-07-16T18:32:41;99224.34;;;24.58;39.33
76732;BME280;65656;51.130;13.658;2023-07-16T18:36:43;99207.97;;;24.35;39.47
76732;BME280;65656;51.130;13.658;2023-07-16T18:40:44;99221.41;;;24.09;39.92
76732;BME280;65656;51.130;13.658;2023-07-16T18:44:47;99221.56;;;23.92;39.87
76732;BME280;65656;51.130;13.658;2023-07-16T18:48:49;99229.91;;;23.79;39.96
76732;BME280;65656;51.130;13.658;2023-07-16T18:52:50;99219.13;;;23.69;40.15
76732;BME280;65656;51.130;13.658;2023-07-16T18:56:52;99237.28;;;23.63;39.71
76732;BME280;65656;51.130;13.658;2023-07-16T19:00:55;99232.75;;;23.50;39.95
76732;BME280;65656;51.130;13.658;2023-07-16T19:04:56;99232.69;;;23.38;40.41
76732;BME280;65656;51.130;13.658;2023-07-16T19:08:58;99229.31;;;23.23;40.82
76732;BME280;65656;51.130;13.658;2023-07-16T19:12:59;99222.88;;;23.02;41.23
76732;BME280;65656;51.130;13.658;2023-07-16T19:17:03;99226.06;;;22.92;41.83
76732;BME280;65656;51.130;13.658;2023-07-16T19:21:05;99242.41;;;22.72;41.86
76732;BME280;65656;51.130;13.658;2023-07-16T19:25:07;99238.88;;;22.46;43.41
76732;BME280;65656;51.130;13.658;2023-07-16T19:29:09;99243.88;;;22.14;46.64
76732;BME280;65656;51.130;13.658;2023-07-16T19:33:12;99247.66;;;21.75;49.52
76732;BME280;65656;51.130;13.658;2023-07-16T19:37:13;99249.09;;;21.38;49.35
76732;BME280;65656;51.130;13.658;2023-07-16T19:41:15;99253.28;;;21.09;49.43
76732;BME280;65656;51.130;13.658;2023-07-16T19:45:16;99252.41;;;20.92;49.86
76732;BME280;65656;51.130;13.658;2023-07-16T19:49:19;99257.84;;;21.05;48.62
76732;BME280;65656;51.130;13.658;2023-07-16T19:53:21;99261.38;;;20.80;52.81
76732;BME280;65656;51.130;13.658;2023-07-16T19:57:22;99274.09;;;20.64;54.07
76732;BME280;65656;51.130;13.658;2023-07-16T20:01:24;99265.38;;;20.34;54.01
76732;BME280;65656;51.130;13.658;2023-07-16T20:05:27;99271.72;;;20.03;56.50
76732;BME280;65656;51.130;13.658;2023-07-16T20:09:28;99283.47;;;19.78;55.95
76732;BME280;65656;51.130;13.658;2023-07-16T20:13:30;99273.44;;;19.55;57.18
76732;BME280;65656;51.130;13.658;2023-07-16T20:17:31;99277.69;;;19.38;60.33
76732;BME280;65656;51.130;13.658;2023-07-16T20:21:35;99286.97;;;19.20;60.82
76732;BME280;65656;51.130;13.658;2023-07-16T20:25:36;99286.56;;;19.13;61.07
76732;BME280;65656;51.130;13.658;2023-07-16T20:29:38;99282.44;;;18.97;63.13
76732;BME280;65656;51.130;13.658;2023-07-16T20:33:40;99285.53;;;18.81;61.95
76732;BME280;65656;51.130;13.658;2023-07-16T20:37:43;99289.66;;;18.70;63.50
76732;BME280;65656;51.130;13.658;2023-07-16T20:41:44;99295.63;;;18.77;64.77
76732;BME280;65656;51.130;13.658;2023-07-16T20:45:46;99298.47;;;18.72;64.34
76732;BME280;65656;51.130;13.658;2023-07-16T20:49:48;99293.09;;;18.62;64.67
76732;BME280;65656;51.130;13.658;2023-07-16T20:53:50;99289.47;;;18.48;66.21
76732;BME280;65656;51.130;13.658;2023-07-16T20:57:53;99284.00;;;18.43;67.52
76732;BME280;65656;51.130;13.658;2023-07-16T21:01:55;99288.31;;;18.35;67.58